sensor_id;sensor_type;location;lat;lon;timestamp;P1;durP1;ratioP1;P2;durP2;ratioP2
41572;SDS011;27286;47.870;19.006;2024-02-21T00:01:21;3.08;;;1.35;;
41572;SDS011;27286;47.870;19.006;2024-02-21T00:03:47;6.28;;;2.05;;
41572;SDS011;27286;47.870;19.006;2024-02-21T00:06:12;4.53;;;2.00;;
41572;SDS011;27286;47.870;19.006;2024-02-21T00:08:38;4.55;;;2.17;;
41572;SDS011;27286;47.870;19.006;2024-02-21T00:11:03;7.15;;;2.10;;
41572;SDS011;27286;47.870;19.006;2024-02-21T00:13:29;5.20;;;1.58;;
41572;SDS011;27286;47.870;19.006;2024-02-21T00:15:54;2.97;;;1.25;;
41572;SDS011;27286;47.870;19.006;2024-02-21T00:18:20;5.68;;;1.90;;
41572;SDS011;27286;47.870;19.006;2024-02-21T00:20:45;6.75;;;2.08;;
41572;SDS011;27286;47.870;19.006;2024-02-21T00:23:11;5.07;;;2.50;;
41572;SDS011;27286;47.870;19.006;2024-02-21T00:25:36;3.72;;;1.75;;
41572;SDS011;27286;47.870;19.006;2024-02-21T00:28:02;4.70;;;2.60;;
41572;SDS011;27286;47.870;19.006;2024-02-21T00:30:28;5.63;;;1.90;;
41572;SDS011;27286;47.870;19.006;2024-02-21T00:32:53;3.92;;;2.08;;
41572;SDS011;27286;47.870;19.006;2024-02-21T00:35:18;4.70;;;1.95;;
41572;SDS011;27286;47.870;19.006;2024-02-21T00:37:44;4.70;;;1.92;;
41572;SDS011;27286;47.870;19.006;2024-02-21T00:40:09;5.10;;;2.30;;
41572;SDS011;27286;47.870;19.006;2024-02-21T00:42:35;5.68;;;2.53;;
41572;SDS011;27286;47.870;19.006;2024-02-21T00:45:01;3.42;;;2.08;;
41572;SDS011;27286;47.870;19.006;2024-02-21T00:47:26;5.25;;;2.97;;
41572;SDS011;27286;47.870;19.006;2024-02-21T00:49:52;3.92;;;2.22;;
41572;SDS011;27286;47.870;19.006;2024-02-21T00:52:17;3.70;;;2.00;;
41572;SDS011;27286;47.870;19.006;2024-02-21T00:54:43;5.35;;;2.40;;
41572;SDS011;27286;47.870;19.006;2024-02-21T00:57:08;7.22;;;2.08;;
41572;SDS011;27286;47.870;19.006;2024-02-21T00:59:34;4.90;;;2.08;;
41572;SDS011;27286;47.870;19.006;2024-02-21T01:01:59;5.28;;;2.40;;
41572;SDS011;27286;47.870;19.006;2024-02-21T01:04:24;6.38;;;2.30;;
41572;SDS011;27286;47.870;19.006;2024-02-21T01:06:50;7.72;;;2.80;;
41572;SDS011;27286;47.870;19.006;2024-02-21T01:09:15;4.32;;;2.20;;
41572;SDS011;27286;47.870;19.006;2024-02-21T01:11:40;6.28;;;2.10;;
41572;SDS011;27286;47.870;19.006;2024-02-21T01:14:06;6.90;;;2.30;;
41572;SDS011;27286;47.870;19.006;2024-02-21T01:16:31;5.78;;;2.72;;
41572;SDS011;27286;47.870;19.006;2024-02-21T01:18:57;5.22;;;2.03;;
41572;SDS011;27286;47.870;19.006;2024-02-21T01:21:22;5.10;;;2.67;;
41572;SDS011;27286;47.870;19.006;2024-02-21T01:23:48;3.05;;;2.10;;
41572;SDS011;27286;47.870;19.006;2024-02-21T01:26:13;5.00;;;2.10;;
41572;SDS011;27286;47.870;19.006;2024-02-21T01:28:40;6.93;;;1.92;;
41572;SDS011;27286;47.870;19.006;2024-02-21T01:31:06;5.60;;;2.13;;
41572;SDS011;27286;47.870;19.006;2024-02-21T01:33:32;5.05;;;1.63;;
41572;SDS011;27286;47.870;19.006;2024-02-21T01:36:02;4.40;;;1.80;;
41572;SDS011;27286;47.870;19.006;2024-02-21T01:38:28;4.45;;;1.80;;
41572;SDS011;27286;47.870;19.006;2024-02-21T01:40:54;6.20;;;2.03;;
41572;SDS011;27286;47.870;19.006;2024-02-21T01:43:20;5.07;;;2.60;;
41572;SDS011;27286;47.870;19.006;2024-02-21T01:45:50;5.18;;;2.50;;
41572;SDS011;27286;47.870;19.006;2024-02-21T01:48:17;4.43;;;1.98;;
41572;SDS011;27286;47.870;19.006;2024-02-21T01:50:46;4.53;;;2.63;;
41572;SDS011;27286;47.870;19.006;2024-02-21T01:53:16;9.60;;;3.03;;
41572;SDS011;27286;47.870;19.006;2024-02-21T01:55:46;7.57;;;2.85;;
41572;SDS011;27286;47.870;19.006;2024-02-21T01:58:14;2.95;;;1.52;;
41572;SDS011;27286;47.870;19.006;2024-02-21T02:00:44;5.07;;;1.73;;
41572;SDS011;27286;47.870;19.006;2024-02-21T02:03:12;5.90;;;1.77;;
41572;SDS011;27286;47.870;19.006;2024-02-21T02:05:47;3.45;;;1.67;;
41572;SDS011;27286;47.870;19.006;2024-02-21T02:08:14;4.95;;;1.80;;
41572;SDS011;27286;47.870;19.006;2024-02-21T02:10:43;3.78;;;2.13;;
41572;SDS011;27286;47.870;19.006;2024-02-21T02:13:09;4.53;;;1.92;;
41572;SDS011;27286;47.870;19.006;2024-02-21T02:15:42;6.25;;;2.35;;
41572;SDS011;27286;47.870;19.006;2024-02-21T02:18:13;9.65;;;2.55;;
41572;SDS011;27286;47.870;19.006;2024-02-21T02:20:40;5.70;;;2.08;;
41572;SDS011;27286;47.870;19.006;2024-02-21T02:25:59;6.32;;;1.73;;
41572;SDS011;27286;47.870;19.006;2024-02-21T02:28:26;4.32;;;1.92;;
41572;SDS011;27286;47.870;19.006;2024-02-21T02:30:52;9.45;;;2.70;;
41572;SDS011;27286;47.870;19.006;2024-02-21T02:33:17;5.80;;;2.35;;
41572;SDS011;27286;47.870;19.006;2024-02-21T02:35:43;5.63;;;1.75;;
41572;SDS011;27286;47.870;19.006;2024-02-21T02:38:09;3.30;;;1.98;;
41572;SDS011;27286;47.870;19.006;2024-02-21T02:40:37;7.20;;;1.92;;
41572;SDS011;27286;47.870;19.006;2024-02-21T02:43:03;3.83;;;1.80;;
41572;SDS011;27286;47.870;19.006;2024-02-21T02:45:29;4.07;;;1.88;;
41572;SDS011;27286;47.870;19.006;2024-02-21T02:47:55;4.45;;;1.52;;
41572;SDS011;27286;47.870;19.006;2024-02-21T02:50:22;4.18;;;1.40;;
41572;SDS011;27286;47.870;19.006;2024-02-21T02:52:48;6.10;;;1.77;;
41572;SDS011;27286;47.870;19.006;2024-02-21T02:55:13;3.40;;;1.30;;
41572;SDS011;27286;47.870;19.006;2024-02-21T02:57:39;5.72;;;1.40;;
41572;SDS011;27286;47.870;19.006;2024-02-21T03:00:07;3.88;;;1.65;;
41572;SDS011;27286;47.870;19.006;2024-02-21T03:02:32;7.22;;;2.05;;
41572;SDS011;27286;47.870;19.006;2024-02-21T03:04:58;6.32;;;2.22;;
41572;SDS011;27286;47.870;19.006;2024-02-21T03:07:24;4.78;;;1.52;;
41572;SDS011;27286;47.870;19.006;2024-02-21T03:09:50;3.33;;;1.90;;
41572;SDS011;27286;47.870;19.006;2024-02-21T03:12:16;5.13;;;1.30;;
41572;SDS011;27286;47.870;19.006;2024-02-21T03:14:49;5.38;;;1.65;;
41572;SDS011;27286;47.870;19.006;2024-02-21T03:17:17;4.03;;;1.73;;
41572;SDS011;27286;47.870;19.006;2024-02-21T03:19:42;6.35;;;1.08;;
41572;SDS011;27286;47.870;19.006;2024-02-21T03:22:08;5.57;;;1.92;;
41572;SDS011;27286;47.870;19.006;2024-02-21T03:24:33;6.05;;;1.77;;
41572;SDS011;27286;47.870;19.006;2024-02-21T03:26:59;5.80;;;1.90;;
41572;SDS011;27286;47.870;19.006;2024-02-21T03:29:24;8.85;;;1.90;;
41572;SDS011;27286;47.870;19.006;2024-02-21T03:31:50;3.10;;;1.70;;
41572;SDS011;27286;47.870;19.006;2024-02-21T03:34:15;7.50;;;1.92;;
41572;SDS011;27286;47.870;19.006;2024-02-21T03:36:41;7.97;;;2.15;;
41572;SDS011;27286;47.870;19.006;2024-02-21T03:39:06;6.43;;;2.13;;
41572;SDS011;27286;47.870;19.006;2024-02-21T03:41:34;7.90;;;1.88;;
41572;SDS011;27286;47.870;19.006;2024-02-21T03:43:59;8.10;;;2.60;;
41572;SDS011;27286;47.870;19.006;2024-02-21T03:46:25;8.90;;;3.13;;
41572;SDS011;27286;47.870;19.006;2024-02-21T03:48:51;7.97;;;1.83;;
41572;SDS011;27286;47.870;19.006;2024-02-21T03:51:16;9.57;;;3.47;;
41572;SDS011;27286;47.870;19.006;2024-02-21T03:53:42;8.73;;;1.58;;
41572;SDS011;27286;47.870;19.006;2024-02-21T03:56:07;5.82;;;1.75;;
41572;SDS011;27286;47.870;19.006;2024-02-21T03:58:33;10.02;;;3.00;;
41572;SDS011;27286;47.870;19.006;2024-02-21T04:01:01;9.45;;;2.08;;
41572;SDS011;27286;47.870;19.006;2024-02-21T04:03:28;6.20;;;1.92;;
41572;SDS011;27286;47.870;19.006;2024-02-21T04:05:53;7.20;;;2.63;;
41572;SDS011;27286;47.870;19.006;2024-02-21T04:08:19;7.10;;;2.88;;
41572;SDS011;27286;47.870;19.006;2024-02-21T04:10:44;6.47;;;2.97;;
41572;SDS011;27286;47.870;19.006;2024-02-21T04:13:09;5.13;;;2.33;;
41572;SDS011;27286;47.870;19.006;2024-02-21T04:15:35;10.35;;;2.38;;
41572;SDS011;27286;47.870;19.006;2024-02-21T04:18:01;7.65;;;2.03;;
41572;SDS011;27286;47.870;19.006;2024-02-21T04:20:28;8.02;;;2.08;;
41572;SDS011;27286;47.870;19.006;2024-02-21T04:22:54;13.63;;;6.70;;
41572;SDS011;27286;47.870;19.006;2024-02-21T04:25:19;5.82;;;1.80;;
41572;SDS011;27286;47.870;19.006;2024-02-21T04:27:45;8.73;;;2.60;;
41572;SDS011;27286;47.870;19.006;2024-02-21T04:30:11;7.35;;;1.85;;
41572;SDS011;27286;47.870;19.006;2024-02-21T04:32:37;9.35;;;1.95;;
41572;SDS011;27286;47.870;19.006;2024-02-21T04:35:02;7.43;;;2.72;;
41572;SDS011;27286;47.870;19.006;2024-02-21T04:37:28;4.60;;;1.55;;
41572;SDS011;27286;47.870;19.006;2024-02-21T04:39:54;14.13;;;3.88;;
41572;SDS011;27286;47.870;19.006;2024-02-21T04:42:19;11.00;;;1.80;;
41572;SDS011;27286;47.870;19.006;2024-02-21T04:44:44;11.18;;;2.05;;
41572;SDS011;27286;47.870;19.006;2024-02-21T04:47:10;8.13;;;1.65;;
41572;SDS011;27286;47.870;19.006;2024-02-21T04:49:35;4.63;;;1.65;;
41572;SDS011;27286;47.870;19.006;2024-02-21T04:52:01;5.95;;;1.88;;
41572;SDS011;27286;47.870;19.006;2024-02-21T04:54:27;6.35;;;1.75;;
41572;SDS011;27286;47.870;19.006;2024-02-21T04:56:52;7.55;;;2.22;;
41572;SDS011;27286;47.870;19.006;2024-02-21T04:59:18;9.70;;;2.38;;
41572;SDS011;27286;47.870;19.006;2024-02-21T05:01:43;4.30;;;1.42;;
41572;SDS011;27286;47.870;19.006;2024-02-21T05:04:09;11.02;;;2.15;;
41572;SDS011;27286;47.870;19.006;2024-02-21T05:06:38;6.72;;;1.70;;
41572;SDS011;27286;47.870;19.006;2024-02-21T05:09:04;7.07;;;1.85;;
41572;SDS011;27286;47.870;19.006;2024-02-21T05:11:29;7.50;;;1.63;;
41572;SDS011;27286;47.870;19.006;2024-02-21T05:13:55;8.63;;;2.30;;
41572;SDS011;27286;47.870;19.006;2024-02-21T05:16:20;10.95;;;2.40;;
41572;SDS011;27286;47.870;19.006;2024-02-21T05:18:46;5.15;;;1.80;;
41572;SDS011;27286;47.870;19.006;2024-02-21T05:21:11;7.18;;;2.92;;
41572;SDS011;27286;47.870;19.006;2024-02-21T05:23:37;7.85;;;2.83;;
41572;SDS011;27286;47.870;19.006;2024-02-21T05:26:04;11.98;;;2.85;;
41572;SDS011;27286;47.870;19.006;2024-02-21T05:28:30;9.88;;;3.05;;
41572;SDS011;27286;47.870;19.006;2024-02-21T05:30:56;7.55;;;3.35;;
41572;SDS011;27286;47.870;19.006;2024-02-21T05:33:21;10.05;;;3.30;;
41572;SDS011;27286;47.870;19.006;2024-02-21T05:35:47;7.97;;;3.25;;
41572;SDS011;27286;47.870;19.006;2024-02-21T05:38:15;8.40;;;2.95;;
41572;SDS011;27286;47.870;19.006;2024-02-21T05:40:41;13.45;;;4.00;;
41572;SDS011;27286;47.870;19.006;2024-02-21T05:43:07;8.75;;;3.72;;
41572;SDS011;27286;47.870;19.006;2024-02-21T05:45:33;10.27;;;3.50;;
41572;SDS011;27286;47.870;19.006;2024-02-21T05:47:59;10.50;;;3.72;;
41572;SDS011;27286;47.870;19.006;2024-02-21T05:50:25;8.77;;;3.85;;
41572;SDS011;27286;47.870;19.006;2024-02-21T05:52:52;9.27;;;4.18;;
41572;SDS011;27286;47.870;19.006;2024-02-21T05:55:18;10.02;;;4.13;;
41572;SDS011;27286;47.870;19.006;2024-02-21T05:57:43;11.50;;;4.32;;
41572;SDS011;27286;47.870;19.006;2024-02-21T06:00:09;9.27;;;3.40;;
41572;SDS011;27286;47.870;19.006;2024-02-21T06:02:35;9.70;;;3.90;;
41572;SDS011;27286;47.870;19.006;2024-02-21T06:05:00;10.73;;;3.53;;
41572;SDS011;27286;47.870;19.006;2024-02-21T06:07:25;10.60;;;4.63;;
41572;SDS011;27286;47.870;19.006;2024-02-21T06:09:51;11.57;;;3.42;;
41572;SDS011;27286;47.870;19.006;2024-02-21T06:12:16;12.90;;;4.20;;
41572;SDS011;27286;47.870;19.006;2024-02-21T06:14:41;6.60;;;3.08;;
41572;SDS011;27286;47.870;19.006;2024-02-21T06:17:07;10.23;;;4.07;;
41572;SDS011;27286;47.870;19.006;2024-02-21T06:19:32;12.52;;;3.50;;
41572;SDS011;27286;47.870;19.006;2024-02-21T06:21:58;11.75;;;3.95;;
41572;SDS011;27286;47.870;19.006;2024-02-21T06:24:23;10.13;;;3.67;;
41572;SDS011;27286;47.870;19.006;2024-02-21T06:26:48;16.42;;;5.82;;
41572;SDS011;27286;47.870;19.006;2024-02-21T06:29:14;16.83;;;6.35;;
41572;SDS011;27286;47.870;19.006;2024-02-21T06:31:40;10.57;;;5.28;;
41572;SDS011;27286;47.870;19.006;2024-02-21T06:34:05;8.95;;;4.25;;
41572;SDS011;27286;47.870;19.006;2024-02-21T06:36:31;10.48;;;4.80;;
41572;SDS011;27286;47.870;19.006;2024-02-21T06:38:56;6.32;;;3.28;;
41572;SDS011;27286;47.870;19.006;2024-02-21T06:41:22;9.82;;;4.13;;
41572;SDS011;27286;47.870;19.006;2024-02-21T06:43:47;10.07;;;3.95;;
41572;SDS011;27286;47.870;19.006;2024-02-21T06:46:24;11.88;;;4.30;;
41572;SDS011;27286;47.870;19.006;2024-02-21T06:48:53;9.82;;;3.53;;
41572;SDS011;27286;47.870;19.006;2024-02-21T06:51:21;7.88;;;4.13;;
41572;SDS011;27286;47.870;19.006;2024-02-21T06:53:46;8.50;;;4.63;;
41572;SDS011;27286;47.870;19.006;2024-02-21T06:56:12;15.10;;;5.70;;
41572;SDS011;27286;47.870;19.006;2024-02-21T06:58:37;15.80;;;4.63;;
41572;SDS011;27286;47.870;19.006;2024-02-21T07:01:03;7.38;;;3.33;;
41572;SDS011;27286;47.870;19.006;2024-02-21T07:03:28;11.98;;;3.58;;
41572;SDS011;27286;47.870;19.006;2024-02-21T07:05:54;10.13;;;3.22;;
41572;SDS011;27286;47.870;19.006;2024-02-21T07:08:19;8.18;;;3.03;;
41572;SDS011;27286;47.870;19.006;2024-02-21T07:10:44;7.85;;;3.00;;
41572;SDS011;27286;47.870;19.006;2024-02-21T07:13:10;12.90;;;2.65;;
41572;SDS011;27286;47.870;19.006;2024-02-21T07:15:35;12.55;;;3.17;;
41572;SDS011;27286;47.870;19.006;2024-02-21T07:18:01;13.38;;;4.18;;
41572;SDS011;27286;47.870;19.006;2024-02-21T07:20:27;22.10;;;10.18;;
41572;SDS011;27286;47.870;19.006;2024-02-21T07:22:52;18.63;;;4.30;;
41572;SDS011;27286;47.870;19.006;2024-02-21T07:25:18;8.93;;;2.70;;
41572;SDS011;27286;47.870;19.006;2024-02-21T07:27:44;9.30;;;2.58;;
41572;SDS011;27286;47.870;19.006;2024-02-21T07:30:10;7.35;;;1.50;;
41572;SDS011;27286;47.870;19.006;2024-02-21T07:32:35;6.80;;;1.67;;
41572;SDS011;27286;47.870;19.006;2024-02-21T07:35:01;5.50;;;0.95;;
41572;SDS011;27286;47.870;19.006;2024-02-21T07:37:26;12.68;;;2.38;;
41572;SDS011;27286;47.870;19.006;2024-02-21T07:39:52;5.40;;;1.20;;
41572;SDS011;27286;47.870;19.006;2024-02-21T07:42:17;5.32;;;0.73;;
41572;SDS011;27286;47.870;19.006;2024-02-21T07:44:42;9.75;;;1.15;;
41572;SDS011;27286;47.870;19.006;2024-02-21T07:47:08;4.38;;;1.48;;
41572;SDS011;27286;47.870;19.006;2024-02-21T07:49:40;6.57;;;0.70;;
41572;SDS011;27286;47.870;19.006;2024-02-21T07:52:06;6.18;;;0.75;;
41572;SDS011;27286;47.870;19.006;2024-02-21T07:54:31;7.95;;;1.05;;
41572;SDS011;27286;47.870;19.006;2024-02-21T07:56:56;4.80;;;0.68;;
41572;SDS011;27286;47.870;19.006;2024-02-21T07:59:22;5.82;;;1.02;;
41572;SDS011;27286;47.870;19.006;2024-02-21T08:01:47;4.05;;;0.95;;
41572;SDS011;27286;47.870;19.006;2024-02-21T08:04:13;7.72;;;0.82;;
41572;SDS011;27286;47.870;19.006;2024-02-21T08:06:39;4.07;;;0.98;;
41572;SDS011;27286;47.870;19.006;2024-02-21T08:09:04;6.00;;;0.60;;
41572;SDS011;27286;47.870;19.006;2024-02-21T08:11:30;7.25;;;1.55;;
41572;SDS011;27286;47.870;19.006;2024-02-21T08:13:55;8.65;;;1.30;;
41572;SDS011;27286;47.870;19.006;2024-02-21T08:16:21;4.70;;;0.90;;
41572;SDS011;27286;47.870;19.006;2024-02-21T08:18:46;8.05;;;1.15;;
41572;SDS011;27286;47.870;19.006;2024-02-21T08:21:12;6.43;;;1.05;;
41572;SDS011;27286;47.870;19.006;2024-02-21T08:23:37;3.90;;;0.93;;
41572;SDS011;27286;47.870;19.006;2024-02-21T08:26:03;6.93;;;1.00;;
41572;SDS011;27286;47.870;19.006;2024-02-21T08:28:29;3.80;;;0.90;;
41572;SDS011;27286;47.870;19.006;2024-02-21T08:30:54;5.53;;;1.25;;
41572;SDS011;27286;47.870;19.006;2024-02-21T08:33:20;8.25;;;1.48;;
41572;SDS011;27286;47.870;19.006;2024-02-21T08:35:49;9.32;;;1.38;;
41572;SDS011;27286;47.870;19.006;2024-02-21T08:38:15;6.35;;;0.98;;
41572;SDS011;27286;47.870;19.006;2024-02-21T08:40:40;5.38;;;1.42;;
41572;SDS011;27286;47.870;19.006;2024-02-21T08:43:05;4.38;;;1.05;;
41572;SDS011;27286;47.870;19.006;2024-02-21T08:45:31;5.45;;;0.82;;
41572;SDS011;27286;47.870;19.006;2024-02-21T08:47:56;10.43;;;1.67;;
41572;SDS011;27286;47.870;19.006;2024-02-21T08:50:22;6.70;;;1.70;;
41572;SDS011;27286;47.870;19.006;2024-02-21T08:52:47;7.10;;;1.35;;
41572;SDS011;27286;47.870;19.006;2024-02-21T08:55:12;6.85;;;1.25;;
41572;SDS011;27286;47.870;19.006;2024-02-21T08:57:38;5.25;;;1.20;;
41572;SDS011;27286;47.870;19.006;2024-02-21T09:00:04;9.20;;;2.72;;
41572;SDS011;27286;47.870;19.006;2024-02-21T09:02:35;7.80;;;1.30;;
41572;SDS011;27286;47.870;19.006;2024-02-21T09:05:09;5.75;;;1.70;;
41572;SDS011;27286;47.870;19.006;2024-02-21T09:07:35;7.85;;;1.58;;
41572;SDS011;27286;47.870;19.006;2024-02-21T09:10:00;7.90;;;1.38;;
41572;SDS011;27286;47.870;19.006;2024-02-21T09:12:26;5.75;;;1.00;;
41572;SDS011;27286;47.870;19.006;2024-02-21T09:14:52;5.13;;;1.40;;
41572;SDS011;27286;47.870;19.006;2024-02-21T09:17:17;5.18;;;1.02;;
41572;SDS011;27286;47.870;19.006;2024-02-21T09:19:43;7.85;;;1.52;;
41572;SDS011;27286;47.870;19.006;2024-02-21T09:22:09;5.35;;;1.77;;
41572;SDS011;27286;47.870;19.006;2024-02-21T09:24:34;6.65;;;1.17;;
41572;SDS011;27286;47.870;19.006;2024-02-21T09:27:00;3.25;;;0.90;;
41572;SDS011;27286;47.870;19.006;2024-02-21T09:29:25;5.38;;;0.93;;
41572;SDS011;27286;47.870;19.006;2024-02-21T09:31:51;5.82;;;1.33;;
41572;SDS011;27286;47.870;19.006;2024-02-21T09:34:17;4.90;;;1.85;;
41572;SDS011;27286;47.870;19.006;2024-02-21T09:36:42;3.83;;;1.23;;
41572;SDS011;27286;47.870;19.006;2024-02-21T09:39:09;5.90;;;1.45;;
41572;SDS011;27286;47.870;19.006;2024-02-21T09:41:39;4.65;;;1.48;;
41572;SDS011;27286;47.870;19.006;2024-02-21T09:44:10;3.15;;;0.98;;
41572;SDS011;27286;47.870;19.006;2024-02-21T09:46:42;4.18;;;1.00;;
41572;SDS011;27286;47.870;19.006;2024-02-21T09:49:29;6.95;;;1.40;;
41572;SDS011;27286;47.870;19.006;2024-02-21T09:52:01;6.53;;;1.52;;
41572;SDS011;27286;47.870;19.006;2024-02-21T09:54:28;6.07;;;1.38;;
41572;SDS011;27286;47.870;19.006;2024-02-21T09:56:55;3.63;;;1.17;;
41572;SDS011;27286;47.870;19.006;2024-02-21T09:59:21;4.80;;;1.17;;
41572;SDS011;27286;47.870;19.006;2024-02-21T10:01:49;8.32;;;1.77;;
41572;SDS011;27286;47.870;19.006;2024-02-21T10:04:16;6.75;;;1.38;;
41572;SDS011;27286;47.870;19.006;2024-02-21T10:06:41;7.68;;;1.10;;
41572;SDS011;27286;47.870;19.006;2024-02-21T10:09:07;7.93;;;1.58;;
41572;SDS011;27286;47.870;19.006;2024-02-21T10:11:32;6.80;;;1.52;;
41572;SDS011;27286;47.870;19.006;2024-02-21T10:14:07;4.75;;;1.33;;
41572;SDS011;27286;47.870;19.006;2024-02-21T10:16:32;7.68;;;1.58;;
41572;SDS011;27286;47.870;19.006;2024-02-21T10:18:59;8.93;;;1.35;;
41572;SDS011;27286;47.870;19.006;2024-02-21T10:21:24;9.77;;;1.42;;
41572;SDS011;27286;47.870;19.006;2024-02-21T10:23:50;10.27;;;1.63;;
41572;SDS011;27286;47.870;19.006;2024-02-21T10:26:19;7.15;;;1.48;;
41572;SDS011;27286;47.870;19.006;2024-02-21T10:28:45;5.10;;;1.02;;
41572;SDS011;27286;47.870;19.006;2024-02-21T10:31:20;6.68;;;1.58;;
41572;SDS011;27286;47.870;19.006;2024-02-21T10:33:53;5.35;;;1.55;;
41572;SDS011;27286;47.870;19.006;2024-02-21T10:36:20;7.63;;;1.40;;
41572;SDS011;27286;47.870;19.006;2024-02-21T10:38:45;5.25;;;0.90;;
41572;SDS011;27286;47.870;19.006;2024-02-21T10:41:11;10.48;;;1.73;;
41572;SDS011;27286;47.870;19.006;2024-02-21T10:43:39;10.25;;;2.40;;
41572;SDS011;27286;47.870;19.006;2024-02-21T10:46:08;7.10;;;2.03;;
41572;SDS011;27286;47.870;19.006;2024-02-21T10:48:44;10.13;;;3.00;;
41572;SDS011;27286;47.870;19.006;2024-02-21T10:51:17;13.18;;;3.13;;
41572;SDS011;27286;47.870;19.006;2024-02-21T10:58:52;8.88;;;2.85;;
41572;SDS011;27286;47.870;19.006;2024-02-21T11:01:18;12.02;;;3.33;;
41572;SDS011;27286;47.870;19.006;2024-02-21T11:03:44;7.72;;;2.47;;
41572;SDS011;27286;47.870;19.006;2024-02-21T11:06:11;8.48;;;2.28;;
41572;SDS011;27286;47.870;19.006;2024-02-21T11:08:38;8.93;;;1.80;;
41572;SDS011;27286;47.870;19.006;2024-02-21T11:11:04;11.00;;;2.63;;
41572;SDS011;27286;47.870;19.006;2024-02-21T11:13:36;8.25;;;2.33;;
41572;SDS011;27286;47.870;19.006;2024-02-21T11:16:06;8.15;;;2.13;;
41572;SDS011;27286;47.870;19.006;2024-02-21T11:18:36;8.05;;;2.15;;
41572;SDS011;27286;47.870;19.006;2024-02-21T11:21:02;11.60;;;4.22;;
41572;SDS011;27286;47.870;19.006;2024-02-21T11:23:29;7.93;;;2.40;;
41572;SDS011;27286;47.870;19.006;2024-02-21T11:26:05;11.90;;;1.88;;
41572;SDS011;27286;47.870;19.006;2024-02-21T11:28:34;9.52;;;2.05;;
41572;SDS011;27286;47.870;19.006;2024-02-21T11:31:08;4.95;;;1.70;;
41572;SDS011;27286;47.870;19.006;2024-02-21T11:33:34;9.70;;;2.90;;
41572;SDS011;27286;47.870;19.006;2024-02-21T11:36:00;11.60;;;2.03;;
41572;SDS011;27286;47.870;19.006;2024-02-21T11:38:26;16.88;;;4.05;;
41572;SDS011;27286;47.870;19.006;2024-02-21T11:40:51;18.38;;;3.10;;
41572;SDS011;27286;47.870;19.006;2024-02-21T11:43:16;8.43;;;2.03;;
41572;SDS011;27286;47.870;19.006;2024-02-21T11:45:42;9.75;;;2.33;;
41572;SDS011;27286;47.870;19.006;2024-02-21T11:48:07;10.60;;;2.35;;
41572;SDS011;27286;47.870;19.006;2024-02-21T11:50:36;6.45;;;1.98;;
41572;SDS011;27286;47.870;19.006;2024-02-21T11:53:02;10.95;;;1.95;;
41572;SDS011;27286;47.870;19.006;2024-02-21T11:55:27;10.20;;;2.97;;
41572;SDS011;27286;47.870;19.006;2024-02-21T11:57:53;8.82;;;1.88;;
41572;SDS011;27286;47.870;19.006;2024-02-21T12:00:18;8.43;;;1.85;;
41572;SDS011;27286;47.870;19.006;2024-02-21T12:02:49;7.90;;;2.17;;
41572;SDS011;27286;47.870;19.006;2024-02-21T12:05:15;8.07;;;2.03;;
41572;SDS011;27286;47.870;19.006;2024-02-21T12:07:40;6.47;;;1.48;;
41572;SDS011;27286;47.870;19.006;2024-02-21T12:10:07;6.88;;;2.08;;
41572;SDS011;27286;47.870;19.006;2024-02-21T12:12:39;7.15;;;1.25;;
41572;SDS011;27286;47.870;19.006;2024-02-21T12:15:05;6.60;;;1.58;;
41572;SDS011;27286;47.870;19.006;2024-02-21T12:17:34;7.82;;;1.95;;
41572;SDS011;27286;47.870;19.006;2024-02-21T12:20:00;4.43;;;1.35;;
41572;SDS011;27286;47.870;19.006;2024-02-21T12:22:29;9.05;;;1.60;;
41572;SDS011;27286;47.870;19.006;2024-02-21T12:24:57;7.40;;;1.70;;
41572;SDS011;27286;47.870;19.006;2024-02-21T12:27:23;9.07;;;1.83;;
41572;SDS011;27286;47.870;19.006;2024-02-21T12:29:49;6.45;;;1.55;;
41572;SDS011;27286;47.870;19.006;2024-02-21T12:32:14;6.95;;;1.20;;
41572;SDS011;27286;47.870;19.006;2024-02-21T12:34:40;8.05;;;1.10;;
41572;SDS011;27286;47.870;19.006;2024-02-21T12:37:05;9.65;;;1.73;;
41572;SDS011;27286;47.870;19.006;2024-02-21T12:39:30;8.85;;;2.65;;
41572;SDS011;27286;47.870;19.006;2024-02-21T12:41:57;8.75;;;1.60;;
41572;SDS011;27286;47.870;19.006;2024-02-21T12:44:22;8.98;;;2.10;;
41572;SDS011;27286;47.870;19.006;2024-02-21T12:46:49;8.35;;;1.45;;
41572;SDS011;27286;47.870;19.006;2024-02-21T12:49:17;5.47;;;1.67;;
41572;SDS011;27286;47.870;19.006;2024-02-21T12:51:43;5.20;;;1.30;;
41572;SDS011;27286;47.870;19.006;2024-02-21T12:54:11;10.82;;;2.30;;
41572;SDS011;27286;47.870;19.006;2024-02-21T12:56:37;8.02;;;1.35;;
41572;SDS011;27286;47.870;19.006;2024-02-21T12:59:02;8.85;;;2.08;;
41572;SDS011;27286;47.870;19.006;2024-02-21T13:01:28;11.90;;;1.85;;
41572;SDS011;27286;47.870;19.006;2024-02-21T13:03:53;8.73;;;1.65;;
41572;SDS011;27286;47.870;19.006;2024-02-21T13:06:19;10.20;;;3.50;;
41572;SDS011;27286;47.870;19.006;2024-02-21T13:08:44;12.68;;;1.70;;
41572;SDS011;27286;47.870;19.006;2024-02-21T13:11:11;9.13;;;1.75;;
41572;SDS011;27286;47.870;19.006;2024-02-21T13:13:37;11.35;;;3.55;;
41572;SDS011;27286;47.870;19.006;2024-02-21T13:16:03;7.35;;;1.50;;
41572;SDS011;27286;47.870;19.006;2024-02-21T13:18:29;12.40;;;2.50;;
41572;SDS011;27286;47.870;19.006;2024-02-21T13:20:54;9.95;;;2.70;;
41572;SDS011;27286;47.870;19.006;2024-02-21T13:23:20;10.52;;;2.20;;
41572;SDS011;27286;47.870;19.006;2024-02-21T13:25:48;9.93;;;2.28;;
41572;SDS011;27286;47.870;19.006;2024-02-21T13:28:14;12.50;;;1.70;;
41572;SDS011;27286;47.870;19.006;2024-02-21T13:30:41;8.43;;;1.77;;
41572;SDS011;27286;47.870;19.006;2024-02-21T13:33:07;6.93;;;2.13;;
41572;SDS011;27286;47.870;19.006;2024-02-21T13:35:32;5.82;;;1.75;;
41572;SDS011;27286;47.870;19.006;2024-02-21T13:37:58;6.60;;;1.33;;
41572;SDS011;27286;47.870;19.006;2024-02-21T13:40:23;7.20;;;1.30;;
41572;SDS011;27286;47.870;19.006;2024-02-21T13:42:50;7.63;;;1.95;;
41572;SDS011;27286;47.870;19.006;2024-02-21T13:45:16;16.90;;;3.45;;
41572;SDS011;27286;47.870;19.006;2024-02-21T13:47:41;9.75;;;3.13;;
41572;SDS011;27286;47.870;19.006;2024-02-21T13:50:07;7.43;;;2.53;;
41572;SDS011;27286;47.870;19.006;2024-02-21T13:52:39;8.25;;;1.70;;
41572;SDS011;27286;47.870;19.006;2024-02-21T13:55:08;7.88;;;2.20;;
41572;SDS011;27286;47.870;19.006;2024-02-21T13:57:34;12.13;;;2.78;;
41572;SDS011;27286;47.870;19.006;2024-02-21T14:00:00;11.50;;;2.05;;
41572;SDS011;27286;47.870;19.006;2024-02-21T14:02:26;10.13;;;2.08;;
41572;SDS011;27286;47.870;19.006;2024-02-21T14:04:51;10.13;;;2.58;;
41572;SDS011;27286;47.870;19.006;2024-02-21T14:07:17;8.25;;;2.15;;
41572;SDS011;27286;47.870;19.006;2024-02-21T14:09:42;9.70;;;2.70;;
41572;SDS011;27286;47.870;19.006;2024-02-21T14:12:08;12.40;;;2.42;;
41572;SDS011;27286;47.870;19.006;2024-02-21T14:14:36;16.52;;;4.57;;
41572;SDS011;27286;47.870;19.006;2024-02-21T14:17:02;9.73;;;2.50;;
41572;SDS011;27286;47.870;19.006;2024-02-21T14:19:28;11.43;;;2.38;;
41572;SDS011;27286;47.870;19.006;2024-02-21T14:21:54;10.60;;;2.85;;
41572;SDS011;27286;47.870;19.006;2024-02-21T14:24:20;11.77;;;2.08;;
41572;SDS011;27286;47.870;19.006;2024-02-21T14:26:45;8.50;;;1.90;;
41572;SDS011;27286;47.870;19.006;2024-02-21T14:29:11;12.82;;;2.63;;
41572;SDS011;27286;47.870;19.006;2024-02-21T14:31:37;10.52;;;4.22;;
41572;SDS011;27286;47.870;19.006;2024-02-21T14:34:03;15.10;;;5.40;;